sensor_id;sensor_type;location;lat;lon;timestamp;pressure;altitude;pressure_sealevel;temperature;humidity
21129;BME280;10722;51.910;8.352;2023-01-16T00:01:13;99102.88;;;4.37;98.36
21129;BME280;10722;51.910;8.352;2023-01-16T00:03:58;99108.88;;;4.39;98.73
21129;BME280;10722;51.910;8.352;2023-01-16T00:06:44;99087.69;;;4.49;98.43
21129;BME280;10722;51.910;8.352;2023-01-16T00:09:29;99074.88;;;4.49;98.63
21129;BME280;10722;51.910;8.352;2023-01-16T00:12:14;99074.88;;;4.49;98.26
21129;BME280;10722;51.910;8.352;2023-01-16T00:14:59;99065.47;;;4.48;98.62
21129;BME280;10722;51.910;8.352;2023-01-16T00:17:44;99055.97;;;4.41;98.71
21129;BME280;10722;51.910;8.352;2023-01-16T00:20:30;99055.13;;;4.41;99.09
21129;BME280;10722;51.910;8.352;2023-01-16T00:23:18;99051.66;;;4.37;99.21
21129;BME280;10722;51.910;8.352;2023-01-16T00:26:07;99045.63;;;4.35;99.07
21129;BME280;10722;51.910;8.352;2023-01-16T00:28:52;99029.41;;;4.35;98.32
21129;BME280;10722;51.910;8.352;2023-01-16T00:31:37;99027.72;;;4.34;98.74
21129;BME280;10722;51.910;8.352;2023-01-16T00:34:28;99009.75;;;4.32;98.36
21129;BME280;10722;51.910;8.352;2023-01-16T00:37:15;98997.84;;;4.36;98.55
21129;BME280;10722;51.910;8.352;2023-01-16T00:40:00;98999.44;;;4.26;98.61
21129;BME280;10722;51.910;8.352;2023-01-16T00:42:46;98995.94;;;4.21;98.29
21129;BME280;10722;51.910;8.352;2023-01-16T00:45:31;98988.22;;;4.19;98.82
21129;BME280;10722;51.910;8.352;2023-01-16T00:48:16;98990.72;;;4.15;99.01
21129;BME280;10722;51.910;8.352;2023-01-16T00:51:01;98981.28;;;4.12;99.34
21129;BME280;10722;51.910;8.352;2023-01-16T00:53:46;98982.16;;;4.13;99.41
21129;BME280;10722;51.910;8.352;2023-01-16T00:56:32;98986.44;;;4.15;99.53
21129;BME280;10722;51.910;8.352;2023-01-16T00:59:17;98974.50;;;4.16;99.59
21129;BME280;10722;51.910;8.352;2023-01-16T01:02:02;98974.56;;;4.17;99.88
21129;BME280;10722;51.910;8.352;2023-01-16T01:04:47;98970.28;;;4.19;99.80
21129;BME280;10722;51.910;8.352;2023-01-16T01:07:33;98960.91;;;4.18;99.74
21129;BME280;10722;51.910;8.352;2023-01-16T01:10:18;98966.84;;;4.16;99.60
21129;BME280;10722;51.910;8.352;2023-01-16T01:13:03;98962.63;;;4.19;99.46
21129;BME280;10722;51.910;8.352;2023-01-16T01:15:48;98958.38;;;4.21;99.49
21129;BME280;10722;51.910;8.352;2023-01-16T01:18:35;98949.84;;;4.21;99.56
21129;BME280;10722;51.910;8.352;2023-01-16T01:21:20;98944.78;;;4.22;99.81
21129;BME280;10722;51.910;8.352;2023-01-16T01:24:05;98945.59;;;4.20;99.65
21129;BME280;10722;51.910;8.352;2023-01-16T01:26:50;98929.28;;;4.15;100.00
21129;BME280;10722;51.910;8.352;2023-01-16T01:29:36;98926.78;;;4.18;100.00
21129;BME280;10722;51.910;8.352;2023-01-16T01:32:20;98909.78;;;4.23;100.00
21129;BME280;10722;51.910;8.352;2023-01-16T01:35:06;98907.28;;;4.27;99.94
21129;BME280;10722;51.910;8.352;2023-01-16T01:37:52;98914.06;;;4.24;100.00
21129;BME280;10722;51.910;8.352;2023-01-16T01:40:37;98915.84;;;4.28;100.00
21129;BME280;10722;51.910;8.352;2023-01-16T01:43:43;98905.53;;;4.23;100.00
21129;BME280;10722;51.910;8.352;2023-01-16T01:46:43;98901.22;;;4.21;100.00
21129;BME280;10722;51.910;8.352;2023-01-16T01:49:30;98895.16;;;4.16;100.00
21129;BME280;10722;51.910;8.352;2023-01-16T01:52:17;98893.44;;;4.13;100.00
21129;BME280;10722;51.910;8.352;2023-01-16T01:55:06;98891.72;;;4.14;100.00
21129;BME280;10722;51.910;8.352;2023-01-16T01:57:54;98878.88;;;4.09;100.00
21129;BME280;10722;51.910;8.352;2023-01-16T02:00:41;98875.50;;;4.12;100.00
21129;BME280;10722;51.910;8.352;2023-01-16T02:03:37;98870.34;;;4.09;100.00
21129;BME280;10722;51.910;8.352;2023-01-16T02:06:36;98868.66;;;4.09;100.00
21129;BME280;10722;51.910;8.352;2023-01-16T02:09:25;98861.72;;;4.02;100.00
21129;BME280;10722;51.910;8.352;2023-01-16T02:12:13;98867.81;;;4.12;100.00
21129;BME280;10722;51.910;8.352;2023-01-16T02:14:59;98859.28;;;4.13;100.00
21129;BME280;10722;51.910;8.352;2023-01-16T02:17:44;98861.81;;;4.10;100.00
21129;BME280;10722;51.910;8.352;2023-01-16T02:20:32;98851.50;;;4.05;100.00
21129;BME280;10722;51.910;8.352;2023-01-16T02:29:52;98830.16;;;4.01;99.91
21129;BME280;10722;51.910;8.352;2023-01-16T02:39:06;98815.41;;;3.85;100.00
21129;BME280;10722;51.910;8.352;2023-01-16T02:53:31;98792.97;;;3.66;100.00
21129;BME280;10722;51.910;8.352;2023-01-16T02:56:22;98786.97;;;3.61;100.00
21129;BME280;10722;51.910;8.352;2023-01-16T02:59:10;98780.88;;;3.54;100.00
21129;BME280;10722;51.910;8.352;2023-01-16T03:01:56;98776.41;;;3.39;100.00
21129;BME280;10722;51.910;8.352;2023-01-16T03:14:00;98759.06;;;3.20;100.00
21129;BME280;10722;51.910;8.352;2023-01-16T03:26:27;98747.56;;;2.91;100.00
21129;BME280;10722;51.910;8.352;2023-01-16T03:29:33;98745.84;;;2.90;100.00
21129;BME280;10722;51.910;8.352;2023-01-16T03:32:45;98738.00;;;2.80;100.00
21129;BME280;10722;51.910;8.352;2023-01-16T03:35:36;98734.56;;;2.78;100.00
21129;BME280;10722;51.910;8.352;2023-01-16T03:38:22;98729.44;;;2.78;100.00
21129;BME280;10722;51.910;8.352;2023-01-16T03:41:10;98720.03;;;2.75;100.00
21129;BME280;10722;51.910;8.352;2023-01-16T03:44:05;98714.78;;;2.67;100.00
21129;BME280;10722;51.910;8.352;2023-01-16T03:46:54;98706.31;;;2.68;100.00
21129;BME280;10722;51.910;8.352;2023-01-16T03:49:43;98718.25;;;2.69;100.00
21129;BME280;10722;51.910;8.352;2023-01-16T03:52:34;98706.28;;;2.67;100.00
21129;BME280;10722;51.910;8.352;2023-01-16T03:55:30;98701.16;;;2.65;100.00
21129;BME280;10722;51.910;8.352;2023-01-16T03:58:37;98698.63;;;2.65;100.00
21129;BME280;10722;51.910;8.352;2023-01-16T04:04:36;98693.75;;;2.81;100.00
21129;BME280;10722;51.910;8.352;2023-01-16T04:07:34;98696.50;;;2.93;100.00
21129;BME280;10722;51.910;8.352;2023-01-16T04:10:28;98688.94;;;2.99;100.00
21129;BME280;10722;51.910;8.352;2023-01-16T04:13:17;98678.00;;;3.09;100.00
21129;BME280;10722;51.910;8.352;2023-01-16T04:16:06;98673.84;;;3.18;100.00
21129;BME280;10722;51.910;8.352;2023-01-16T04:18:54;98657.72;;;3.20;100.00
21129;BME280;10722;51.910;8.352;2023-01-16T04:21:43;98656.13;;;3.28;100.00
21129;BME280;10722;51.910;8.352;2023-01-16T04:24:29;98639.13;;;3.32;100.00
21129;BME280;10722;51.910;8.352;2023-01-16T04:27:15;98636.59;;;3.35;100.00
21129;BME280;10722;51.910;8.352;2023-01-16T04:30:00;98628.13;;;3.36;100.00
21129;BME280;10722;51.910;8.352;2023-01-16T04:32:45;98618.78;;;3.40;100.00
21129;BME280;10722;51.910;8.352;2023-01-16T04:35:31;98612.00;;;3.42;100.00
21129;BME280;10722;51.910;8.352;2023-01-16T04:38:16;98600.03;;;3.41;100.00
21129;BME280;10722;51.910;8.352;2023-01-16T04:41:01;98591.63;;;3.48;100.00
21129;BME280;10722;51.910;8.352;2023-01-16T04:43:47;98583.06;;;3.44;100.00
21129;BME280;10722;51.910;8.352;2023-01-16T04:46:32;98569.44;;;3.45;100.00
21129;BME280;10722;51.910;8.352;2023-01-16T04:49:17;98567.75;;;3.49;100.00
21129;BME280;10722;51.910;8.352;2023-01-16T04:52:03;98549.03;;;3.50;100.00
21129;BME280;10722;51.910;8.352;2023-01-16T04:54:48;98535.31;;;3.42;100.00
21129;BME280;10722;51.910;8.352;2023-01-16T04:57:34;98527.53;;;3.31;100.00
21129;BME280;10722;51.910;8.352;2023-01-16T05:00:19;98527.47;;;3.28;100.00
21129;BME280;10722;51.910;8.352;2023-01-16T05:03:05;98524.91;;;3.26;100.00
21129;BME280;10722;51.910;8.352;2023-01-16T05:05:50;98536.81;;;3.24;100.00
21129;BME280;10722;51.910;8.352;2023-01-16T05:08:35;98524.03;;;3.24;100.00
21129;BME280;10722;51.910;8.352;2023-01-16T05:11:21;98517.97;;;3.16;100.00
21129;BME280;10722;51.910;8.352;2023-01-16T05:14:07;98513.69;;;3.13;100.00
21129;BME280;10722;51.910;8.352;2023-01-16T05:16:53;98520.47;;;3.10;100.00
21129;BME280;10722;51.910;8.352;2023-01-16T05:19:38;98513.66;;;3.10;100.00
21129;BME280;10722;51.910;8.352;2023-01-16T05:22:23;98505.94;;;3.06;100.00
21129;BME280;10722;51.910;8.352;2023-01-16T05:25:08;98504.16;;;3.00;100.00
21129;BME280;10722;51.910;8.352;2023-01-16T05:27:53;98507.53;;;2.98;100.00
21129;BME280;10722;51.910;8.352;2023-01-16T05:30:39;98497.22;;;2.90;100.00
21129;BME280;10722;51.910;8.352;2023-01-16T05:33:25;98491.28;;;2.92;100.00
21129;BME280;10722;51.910;8.352;2023-01-16T05:36:10;98486.13;;;2.89;100.00
21129;BME280;10722;51.910;8.352;2023-01-16T05:38:56;98479.25;;;2.84;100.00
21129;BME280;10722;51.910;8.352;2023-01-16T05:41:40;98487.75;;;2.80;100.00
21129;BME280;10722;51.910;8.352;2023-01-16T05:44:25;98474.00;;;2.72;100.00
21129;BME280;10722;51.910;8.352;2023-01-16T05:47:10;98464.69;;;2.75;100.00
21129;BME280;10722;51.910;8.352;2023-01-16T05:49:55;98467.22;;;2.72;100.00
21129;BME280;10722;51.910;8.352;2023-01-16T05:52:41;98462.09;;;2.72;100.00
21129;BME280;10722;51.910;8.352;2023-01-16T05:55:26;98457.78;;;2.65;100.00
21129;BME280;10722;51.910;8.352;2023-01-16T05:58:12;98451.75;;;2.61;100.00
21129;BME280;10722;51.910;8.352;2023-01-16T06:00:58;98440.72;;;2.62;100.00
21129;BME280;10722;51.910;8.352;2023-01-16T06:03:43;98450.13;;;2.65;100.00
21129;BME280;10722;51.910;8.352;2023-01-16T06:06:28;98436.44;;;2.61;100.00
21129;BME280;10722;51.910;8.352;2023-01-16T06:09:13;98429.63;;;2.60;100.00
21129;BME280;10722;51.910;8.352;2023-01-16T06:11:59;98430.47;;;2.59;100.00
21129;BME280;10722;51.910;8.352;2023-01-16T06:14:45;98423.69;;;2.63;100.00
21129;BME280;10722;51.910;8.352;2023-01-16T06:17:33;98421.94;;;2.57;100.00
21129;BME280;10722;51.910;8.352;2023-01-16T06:20:18;98411.72;;;2.59;100.00
21129;BME280;10722;51.910;8.352;2023-01-16T06:23:03;98418.56;;;2.60;100.00
21129;BME280;10722;51.910;8.352;2023-01-16T06:25:49;98403.28;;;2.63;100.00
21129;BME280;10722;51.910;8.352;2023-01-16T06:28:34;98409.22;;;2.62;100.00
21129;BME280;10722;51.910;8.352;2023-01-16T06:31:19;98393.94;;;2.66;100.00
21129;BME280;10722;51.910;8.352;2023-01-16T06:34:04;98384.59;;;2.65;100.00
21129;BME280;10722;51.910;8.352;2023-01-16T06:36:49;98371.03;;;2.71;100.00
21129;BME280;10722;51.910;8.352;2023-01-16T06:39:34;98370.25;;;2.77;100.00
21129;BME280;10722;51.910;8.352;2023-01-16T06:42:20;98371.91;;;2.75;100.00
21129;BME280;10722;51.910;8.352;2023-01-16T06:45:06;98361.72;;;2.76;100.00
21129;BME280;10722;51.910;8.352;2023-01-16T06:47:52;98355.75;;;2.74;100.00
21129;BME280;10722;51.910;8.352;2023-01-16T06:50:37;98357.44;;;2.75;100.00
21129;BME280;10722;51.910;8.352;2023-01-16T06:53:22;98349.78;;;2.74;100.00
21129;BME280;10722;51.910;8.352;2023-01-16T06:56:07;98338.78;;;2.79;100.00
21129;BME280;10722;51.910;8.352;2023-01-16T06:58:52;98328.59;;;2.84;100.00
21129;BME280;10722;51.910;8.352;2023-01-16T07:01:38;98332.88;;;2.85;100.00
21129;BME280;10722;51.910;8.352;2023-01-16T07:04:23;98335.59;;;3.03;100.00
21129;BME280;10722;51.910;8.352;2023-01-16T07:07:08;98317.63;;;2.94;100.00
21129;BME280;10722;51.910;8.352;2023-01-16T07:09:54;98308.28;;;2.98;100.00
21129;BME280;10722;51.910;8.352;2023-01-16T07:12:39;98297.19;;;2.91;100.00
21129;BME280;10722;51.910;8.352;2023-01-16T07:15:24;98286.13;;;2.90;100.00
21129;BME280;10722;51.910;8.352;2023-01-16T07:18:12;98280.97;;;2.89;100.00
21129;BME280;10722;51.910;8.352;2023-01-16T07:21:01;98278.44;;;2.92;100.00
21129;BME280;10722;51.910;8.352;2023-01-16T07:23:50;98274.25;;;2.97;100.00
21129;BME280;10722;51.910;8.352;2023-01-16T07:26:40;98258.06;;;2.98;100.00
21129;BME280;10722;51.910;8.352;2023-01-16T07:29:28;98246.94;;;2.91;100.00
21129;BME280;10722;51.910;8.352;2023-01-16T07:32:14;98247.84;;;2.98;100.00
21129;BME280;10722;51.910;8.352;2023-01-16T07:34:59;98239.31;;;2.95;100.00
21129;BME280;10722;51.910;8.352;2023-01-16T07:37:44;98233.41;;;3.03;100.00
21129;BME280;10722;51.910;8.352;2023-01-16T07:40:29;98229.97;;;2.98;100.00
21129;BME280;10722;51.910;8.352;2023-01-16T07:43:15;98219.81;;;3.06;100.00
21129;BME280;10722;51.910;8.352;2023-01-16T07:46:00;98217.25;;;3.06;100.00
21129;BME280;10722;51.910;8.352;2023-01-16T07:48:45;98207.84;;;3.00;100.00
21129;BME280;10722;51.910;8.352;2023-01-16T07:51:30;98208.81;;;3.18;100.00
21129;BME280;10722;51.910;8.352;2023-01-16T07:54:15;98194.38;;;3.20;100.00
21129;BME280;10722;51.910;8.352;2023-01-16T07:57:01;98185.00;;;3.19;100.00
21129;BME280;10722;51.910;8.352;2023-01-16T07:59:46;98184.19;;;3.27;100.00
21129;BME280;10722;51.910;8.352;2023-01-16T08:02:31;98168.84;;;3.29;100.00
21129;BME280;10722;51.910;8.352;2023-01-16T08:05:16;98151.00;;;3.35;100.00
21129;BME280;10722;51.910;8.352;2023-01-16T08:08:01;98137.34;;;3.31;100.00
21129;BME280;10722;51.910;8.352;2023-01-16T08:10:46;98129.72;;;3.33;100.00
21129;BME280;10722;51.910;8.352;2023-01-16T08:13:31;98119.50;;;3.39;100.00
21129;BME280;10722;51.910;8.352;2023-01-16T08:16:16;98115.25;;;3.38;100.00
21129;BME280;10722;51.910;8.352;2023-01-16T08:19:01;98103.34;;;3.42;100.00
21129;BME280;10722;51.910;8.352;2023-01-16T08:21:47;98093.13;;;3.46;100.00
21129;BME280;10722;51.910;8.352;2023-01-16T08:24:32;98096.56;;;3.50;100.00
21129;BME280;10722;51.910;8.352;2023-01-16T08:27:17;98088.03;;;3.49;100.00
21129;BME280;10722;51.910;8.352;2023-01-16T08:30:07;98094.00;;;3.57;100.00
21129;BME280;10722;51.910;8.352;2023-01-16T08:33:00;98070.97;;;3.51;100.00
21129;BME280;10722;51.910;8.352;2023-01-16T08:35:45;98056.53;;;3.58;100.00
21129;BME280;10722;51.910;8.352;2023-01-16T08:38:30;98048.00;;;3.56;100.00
21129;BME280;10722;51.910;8.352;2023-01-16T08:41:16;98049.69;;;3.57;100.00
21129;BME280;10722;51.910;8.352;2023-01-16T08:44:02;98044.63;;;3.65;100.00
21129;BME280;10722;51.910;8.352;2023-01-16T08:47:11;98035.25;;;3.70;100.00
21129;BME280;10722;51.910;8.352;2023-01-16T08:49:57;98024.16;;;3.68;100.00
21129;BME280;10722;51.910;8.352;2023-01-16T08:52:42;98013.09;;;3.72;100.00
21129;BME280;10722;51.910;8.352;2023-01-16T08:55:28;98018.19;;;3.73;100.00
21129;BME280;10722;51.910;8.352;2023-01-16T08:58:13;98012.25;;;3.79;100.00
21129;BME280;10722;51.910;8.352;2023-01-16T09:00:59;98013.09;;;3.81;100.00
21129;BME280;10722;51.910;8.352;2023-01-16T09:03:46;98001.16;;;3.80;100.00
21129;BME280;10722;51.910;8.352;2023-01-16T09:06:32;97991.78;;;3.79;100.00
21129;BME280;10722;51.910;8.352;2023-01-16T09:09:18;97984.13;;;3.87;100.00
21129;BME280;10722;51.910;8.352;2023-01-16T09:12:03;97961.94;;;3.93;100.00
21129;BME280;10722;51.910;8.352;2023-01-16T09:14:48;97955.13;;;3.98;100.00
21129;BME280;10722;51.910;8.352;2023-01-16T09:17:34;97939.78;;;4.09;100.00
21129;BME280;10722;51.910;8.352;2023-01-16T09:20:20;97925.28;;;4.11;100.00
21129;BME280;10722;51.910;8.352;2023-01-16T09:23:05;97915.03;;;4.13;100.00
21129;BME280;10722;51.910;8.352;2023-01-16T09:25:51;97908.19;;;4.22;99.60
21129;BME280;10722;51.910;8.352;2023-01-16T09:28:36;97898.81;;;4.23;99.13
21129;BME280;10722;51.910;8.352;2023-01-16T09:31:21;97895.38;;;4.27;98.39
21129;BME280;10722;51.910;8.352;2023-01-16T09:34:06;97884.28;;;4.33;97.95
21129;BME280;10722;51.910;8.352;2023-01-16T09:36:52;97870.63;;;4.31;97.43
21129;BME280;10722;51.910;8.352;2023-01-16T09:39:37;97862.09;;;4.35;97.18
21129;BME280;10722;51.910;8.352;2023-01-16T09:45:17;97839.00;;;4.45;95.75
21129;BME280;10722;51.910;8.352;2023-01-16T09:48:11;97825.34;;;4.46;95.22
21129;BME280;10722;51.910;8.352;2023-01-16T09:51:01;97821.91;;;4.47;94.74
21129;BME280;10722;51.910;8.352;2023-01-16T09:54:09;97816.81;;;4.49;94.36
21129;BME280;10722;51.910;8.352;2023-01-16T09:56:58;97815.97;;;4.45;95.40
21129;BME280;10722;51.910;8.352;2023-01-16T09:59:47;97813.44;;;4.41;96.25
21129;BME280;10722;51.910;8.352;2023-01-16T10:02:34;97830.50;;;4.37;97.45
21129;BME280;10722;51.910;8.352;2023-01-16T10:05:22;97816.84;;;4.38;97.15
21129;BME280;10722;51.910;8.352;2023-01-16T10:11:19;97817.69;;;4.43;97.97
21129;BME280;10722;51.910;8.352;2023-01-16T10:17:24;97784.31;;;4.56;96.90
21129;BME280;10722;51.910;8.352;2023-01-16T10:20:28;97766.38;;;4.60;96.12
21129;BME280;10722;51.910;8.352;2023-01-16T10:23:34;97748.44;;;4.65;95.18
21129;BME280;10722;51.910;8.352;2023-01-16T10:26:34;97733.91;;;4.68;94.98
21129;BME280;10722;51.910;8.352;2023-01-16T10:29:39;97733.88;;;4.73;94.68
21129;BME280;10722;51.910;8.352;2023-01-16T10:35:46;97697.13;;;4.79;93.93
21129;BME280;10722;51.910;8.352;2023-01-16T10:38:39;97697.09;;;4.80;93.79
21129;BME280;10722;51.910;8.352;2023-01-16T10:41:33;97679.16;;;4.83;93.27
21129;BME280;10722;51.910;8.352;2023-01-16T10:47:17;97648.34;;;4.91;92.00
21129;BME280;10722;51.910;8.352;2023-01-16T10:50:04;97639.78;;;4.93;92.12
21129;BME280;10722;51.910;8.352;2023-01-16T10:52:50;97624.41;;;4.92;91.43
21129;BME280;10722;51.910;8.352;2023-01-16T10:55:39;97629.47;;;4.98;91.60
21129;BME280;10722;51.910;8.352;2023-01-16T10:58:28;97614.06;;;5.03;91.56
21129;BME280;10722;51.910;8.352;2023-01-16T11:01:18;97594.44;;;5.00;90.89
21129;BME280;10722;51.910;8.352;2023-01-16T11:04:05;97590.16;;;5.02;90.24
21129;BME280;10722;51.910;8.352;2023-01-16T11:06:50;97596.13;;;5.03;90.43
21129;BME280;10722;51.910;8.352;2023-01-16T11:09:56;97580.69;;;5.09;90.70
21129;BME280;10722;51.910;8.352;2023-01-16T11:12:41;97577.31;;;5.04;89.97
21129;BME280;10722;51.910;8.352;2023-01-16T11:15:27;97569.63;;;5.05;90.12
21129;BME280;10722;51.910;8.352;2023-01-16T11:18:34;97557.75;;;4.98;90.08
21129;BME280;10722;51.910;8.352;2023-01-16T11:24:19;97559.50;;;4.94;90.52
21129;BME280;10722;51.910;8.352;2023-01-16T11:27:07;97574.94;;;4.90;90.60
21129;BME280;10722;51.910;8.352;2023-01-16T11:29:57;97551.88;;;4.90;90.46
21129;BME280;10722;51.910;8.352;2023-01-16T11:32:42;97549.31;;;4.90;90.50
21129;BME280;10722;51.910;8.352;2023-01-16T11:35:32;97542.50;;;4.87;90.85
21129;BME280;10722;51.910;8.352;2023-01-16T11:38:19;97546.78;;;4.85;90.82
21129;BME280;10722;51.910;8.352;2023-01-16T11:41:05;97550.22;;;4.84;90.79
21129;BME280;10722;51.910;8.352;2023-01-16T11:47:02;97543.47;;;4.77;90.91
21129;BME280;10722;51.910;8.352;2023-01-16T11:49:50;97545.16;;;4.78;91.51
21129;BME280;10722;51.910;8.352;2023-01-16T11:52:35;97534.91;;;4.78;91.47
21129;BME280;10722;51.910;8.352;2023-01-16T11:55:21;97536.66;;;4.76;91.30
21129;BME280;10722;51.910;8.352;2023-01-16T11:58:25;97527.28;;;4.74;91.03
21129;BME280;10722;51.910;8.352;2023-01-16T12:01:30;97527.28;;;4.74;91.39
21129;BME280;10722;51.910;8.352;2023-01-16T12:04:25;97513.59;;;4.75;91.56
21129;BME280;10722;51.910;8.352;2023-01-16T12:07:21;97517.91;;;4.69;91.91
21129;BME280;10722;51.910;8.352;2023-01-16T12:13:09;97504.31;;;4.66;91.96
21129;BME280;10722;51.910;8.352;2023-01-16T12:28:24;97478.63;;;4.74;91.44
21129;BME280;10722;51.910;8.352;2023-01-16T12:43:31;97400.00;;;4.80;89.83
21129;BME280;10722;51.910;8.352;2023-01-16T12:46:35;97389.75;;;4.82;89.99
21129;BME280;10722;51.910;8.352;2023-01-16T12:53:46;97364.09;;;4.83;89.35
21129;BME280;10722;51.910;8.352;2023-01-16T13:02:27;97345.25;;;4.89;89.09
21129;BME280;10722;51.910;8.352;2023-01-16T13:05:23;97340.91;;;4.96;89.05
21129;BME280;10722;51.910;8.352;2023-01-16T13:11:06;97319.63;;;4.90;88.74
21129;BME280;10722;51.910;8.352;2023-01-16T13:13:59;97321.34;;;4.88;89.02
21129;BME280;10722;51.910;8.352;2023-01-16T13:16:57;97315.31;;;4.92;89.09
21129;BME280;10722;51.910;8.352;2023-01-16T13:19:46;97318.66;;;4.98;89.08
21129;BME280;10722;51.910;8.352;2023-01-16T13:22:43;97317.72;;;5.03;89.12
21129;BME280;10722;51.910;8.352;2023-01-16T13:25:46;97307.50;;;5.02;88.78
21129;BME280;10722;51.910;8.352;2023-01-16T13:28:43;97307.41;;;5.06;89.00
21129;BME280;10722;51.910;8.352;2023-01-16T13:31:41;97295.38;;;5.13;88.49
21129;BME280;10722;51.910;8.352;2023-01-16T13:34:40;97285.59;;;5.84;87.98
21129;BME280;10722;51.910;8.352;2023-01-16T13:44:14;97178.22;;;5.66;84.40
21129;BME280;10722;51.910;8.352;2023-01-16T13:47:04;97182.91;;;5.44;84.62
21129;BME280;10722;51.910;8.352;2023-01-16T13:49:52;97195.09;;;5.31;85.02
21129;BME280;10722;51.910;8.352;2023-01-16T13:52:41;97196.91;;;5.26;85.32
21129;BME280;10722;51.910;8.352;2023-01-16T13:55:30;97187.59;;;5.22;85.54
21129;BME280;10722;51.910;8.352;2023-01-16T13:58:21;97204.53;;;5.29;86.01
21129;BME280;10722;51.910;8.352;2023-01-16T14:01:31;97202.91;;;5.25;85.89
21129;BME280;10722;51.910;8.352;2023-01-16T14:10:39;97191.34;;;5.03;86.02
21129;BME280;10722;51.910;8.352;2023-01-16T14:13:32;97193.88;;;5.04;85.97
21129;BME280;10722;51.910;8.352;2023-01-16T14:22:01;97194.06;;;4.92;86.64
21129;BME280;10722;51.910;8.352;2023-01-16T14:24:53;97196.66;;;4.90;87.08
21129;BME280;10722;51.910;8.352;2023-01-16T14:27:40;97201.81;;;4.89;87.44
21129;BME280;10722;51.910;8.352;2023-01-16T14:30:30;97206.97;;;4.86;87.61
21129;BME280;10722;51.910;8.352;2023-01-16T14:33:17;97206.03;;;4.91;88.21
21129;BME280;10722;51.910;8.352;2023-01-16T14:36:04;97202.72;;;4.85;88.01
21129;BME280;10722;51.910;8.352;2023-01-16T14:38:49;97201.00;;;4.85;88.32
21129;BME280;10722;51.910;8.352;2023-01-16T14:41:36;97195.94;;;4.81;88.39
21129;BME280;10722;51.910;8.352;2023-01-16T14:44:21;97200.19;;;4.83;88.62
21129;BME280;10722;51.910;8.352;2023-01-16T14:50:13;97195.94;;;4.81;89.07
21129;BME280;10722;51.910;8.352;2023-01-16T14:59:13;97210.78;;;4.62;91.41
21129;BME280;10722;51.910;8.352;2023-01-16T15:02:16;97224.47;;;4.58;92.55
21129;BME280;10722;51.910;8.352;2023-01-16T15:07:53;97233.13;;;4.51;94.07
21129;BME280;10722;51.910;8.352;2023-01-16T15:10:39;97227.97;;;4.54;94.51
21129;BME280;10722;51.910;8.352;2023-01-16T15:13:30;97219.44;;;4.52;94.32
21129;BME280;10722;51.910;8.352;2023-01-16T15:16:21;97213.50;;;4.49;94.21
21129;BME280;10722;51.910;8.352;2023-01-16T15:19:19;97211.00;;;4.46;93.86
21129;BME280;10722;51.910;8.352;2023-01-16T15:22:18;97206.72;;;4.47;94.70
21129;BME280;10722;51.910;8.352;2023-01-16T15:31:44;97191.50;;;4.36;94.48
21129;BME280;10722;51.910;8.352;2023-01-16T15:34:31;97194.03;;;4.39;94.50
21129;BME280;10722;51.910;8.352;2023-01-16T15:37:23;97183.97;;;4.29;94.51
21129;BME280;10722;51.910;8.352;2023-01-16T15:40:23;97183.06;;;4.31;94.86
21129;BME280;10722;51.910;8.352;2023-01-16T15:43:09;97185.59;;;4.33;95.03
21129;BME280;10722;51.910;8.352;2023-01-16T15:52:16;97172.03;;;4.26;95.04
21129;BME280;10722;51.910;8.352;2023-01-16T15:55:14;97172.00;;;4.29;95.19
21129;BME280;10722;51.910;8.352;2023-01-16T15:58:05;97162.56;;;4.33;95.18
21129;BME280;10722;51.910;8.352;2023-01-16T16:00:57;97164.28;;;4.32;95.23
21129;BME280;10722;51.910;8.352;2023-01-16T16:03:46;97168.56;;;4.32;95.39
21129;BME280;10722;51.910;8.352;2023-01-16T16:06:32;97171.06;;;4.35;95.29
21129;BME280;10722;51.910;8.352;2023-01-16T16:09:20;97148.88;;;4.35;94.97
21129;BME280;10722;51.910;8.352;2023-01-16T16:12:08;97136.97;;;4.33;94.97
21129;BME280;10722;51.910;8.352;2023-01-16T16:15:17;97133.50;;;4.37;94.67
21129;BME280;10722;51.910;8.352;2023-01-16T16:18:13;97128.38;;;4.37;94.49
21129;BME280;10722;51.910;8.352;2023-01-16T16:21:13;97116.44;;;4.37;94.18
21129;BME280;10722;51.910;8.352;2023-01-16T16:24:02;97107.00;;;4.41;94.20
21129;BME280;10722;51.910;8.352;2023-01-16T16:26:49;97098.44;;;4.42;94.02
21129;BME280;10722;51.910;8.352;2023-01-16T16:29:34;97105.25;;;4.43;94.16
21129;BME280;10722;51.910;8.352;2023-01-16T16:32:20;97081.34;;;4.45;93.81
21129;BME280;10722;51.910;8.352;2023-01-16T16:35:06;97071.97;;;4.43;93.63
21129;BME280;10722;51.910;8.352;2023-01-16T16:37:51;97077.09;;;4.43;93.44
21129;BME280;10722;51.910;8.352;2023-01-16T16:40:37;97066.75;;;4.49;93.31
21129;BME280;10722;51.910;8.352;2023-01-16T16:46:30;97054.13;;;4.38;93.21
21129;BME280;10722;51.910;8.352;2023-01-16T16:55:29;97054.19;;;4.35;93.67
21129;BME280;10722;51.910;8.352;2023-01-16T16:58:21;97052.41;;;4.39;93.80
21129;BME280;10722;51.910;8.352;2023-01-16T17:01:10;97054.06;;;4.43;94.14
21129;BME280;10722;51.910;8.352;2023-01-16T17:03:58;97054.22;;;4.34;94.24
21129;BME280;10722;51.910;8.352;2023-01-16T17:06:47;97061.03;;;4.33;94.62
21129;BME280;10722;51.910;8.352;2023-01-16T17:09:32;97055.97;;;4.30;94.56
21129;BME280;10722;51.910;8.352;2023-01-16T17:12:18;97051.69;;;4.32;94.76
21129;BME280;10722;51.910;8.352;2023-01-16T17:15:04;97055.91;;;4.33;95.25
21129;BME280;10722;51.910;8.352;2023-01-16T17:17:50;97055.03;;;4.36;95.04
21129;BME280;10722;51.910;8.352;2023-01-16T17:20:35;97048.38;;;4.25;95.45
21129;BME280;10722;51.910;8.352;2023-01-16T17:23:23;97050.91;;;4.27;95.56
21129;BME280;10722;51.910;8.352;2023-01-16T17:26:08;97053.47;;;4.27;95.89
21129;BME280;10722;51.910;8.352;2023-01-16T17:28:53;97056.03;;;4.27;95.87
21129;BME280;10722;51.910;8.352;2023-01-16T17:31:40;97043.22;;;4.27;95.91
21129;BME280;10722;51.910;8.352;2023-01-16T17:34:25;97040.66;;;4.29;95.72
21129;BME280;10722;51.910;8.352;2023-01-16T17:37:13;97050.84;;;4.30;95.88
21129;BME280;10722;51.910;8.352;2023-01-16T17:39:58;97041.44;;;4.32;95.97